createdAt,value
2023-02-05T00:01:23.378Z,102854.91
2023-02-05T00:03:49.861Z,102856.34
2023-02-05T00:06:16.379Z,102842.25
2023-02-05T00:08:42.999Z,102853.47
2023-02-05T00:11:09.815Z,102848.13
2023-02-05T00:13:37.482Z,102852.28
2023-02-05T00:16:24.451Z,102840.81
2023-02-05T00:18:51.526Z,102826.88
2023-02-05T00:21:19.870Z,102819.72
2023-02-05T00:23:46.709Z,102818.53
2023-02-05T00:26:14.288Z,102825.91
2023-02-05T00:28:42.014Z,102825.66
2023-02-05T00:31:17.015Z,102830.59
2023-02-05T00:33:44.262Z,102831.06
2023-02-05T00:36:12.895Z,102822.34
2023-02-05T00:38:40.182Z,102810.13
2023-02-05T00:41:06.738Z,102811.81
2023-02-05T00:43:33.191Z,102804.75
2023-02-05T00:45:59.766Z,102802.16
2023-02-05T00:48:26.377Z,102802.94
2023-02-05T00:50:52.954Z,102803.09
2023-02-05T00:53:20.302Z,102787.34
2023-02-05T00:55:46.959Z,102775.13
2023-02-05T00:58:13.911Z,102782.00
2023-02-05T01:00:40.533Z,102782.75
2023-02-05T01:03:07.349Z,102780.03
2023-02-05T01:05:35.243Z,102778.22
2023-02-05T01:08:02.212Z,102776.38
2023-02-05T01:10:29.118Z,102767.81
2023-02-05T01:12:55.833Z,102764.28
2023-02-05T01:15:22.433Z,102761.56
2023-02-05T01:17:49.003Z,102757.91
2023-02-05T01:20:15.730Z,102751.16
2023-02-05T01:22:42.997Z,102739.84
2023-02-05T01:25:10.528Z,102736.19
2023-02-05T01:27:37.095Z,102730.09
2023-02-05T01:30:05.297Z,102729.31
2023-02-05T01:32:32.062Z,102721.25
2023-02-05T01:34:58.511Z,102709.00
2023-02-05T01:37:25.430Z,102705.66
2023-02-05T01:39:52.050Z,102709.91
2023-02-05T01:42:22.046Z,102703.78
2023-02-05T01:45:29.630Z,102705.34
2023-02-05T01:47:58.415Z,102710.53
2023-02-05T01:50:32.171Z,102705.09
2023-02-05T01:53:03.941Z,102697.28
2023-02-05T01:55:31.373Z,102698.97
2023-02-05T01:58:00.361Z,102704.03
2023-02-05T02:00:27.160Z,102699.63
2023-02-05T02:02:53.970Z,102699.63
2023-02-05T02:05:20.472Z,102699.63
2023-02-05T02:07:47.077Z,102700.38
2023-02-05T02:10:15.228Z,102697.78
2023-02-05T02:12:44.028Z,102699.44
2023-02-05T02:15:15.603Z,102688.16
2023-02-05T02:17:44.697Z,102684.66
2023-02-05T02:20:18.880Z,102675.03
2023-02-05T02:22:54.650Z,102672.28
2023-02-05T02:25:37.981Z,102653.19
2023-02-05T02:28:16.629Z,102665.25
2023-02-05T02:30:59.522Z,102659.16
2023-02-05T02:33:41.081Z,102664.22
2023-02-05T02:36:22.044Z,102646.00
2023-02-05T02:38:53.379Z,102650.94
2023-02-05T02:41:27.265Z,102658.75
2023-02-05T02:44:11.218Z,102649.91
2023-02-05T02:46:43.006Z,102635.84
2023-02-05T02:49:17.028Z,102646.25
2023-02-05T02:51:45.326Z,102627.91
2023-02-05T02:54:16.442Z,102629.47
2023-02-05T02:56:45.125Z,102620.63
2023-02-05T02:59:18.358Z,102627.34
2023-02-05T03:01:54.983Z,102622.16
2023-02-05T03:04:29.470Z,102617.88
2023-02-05T03:07:03.563Z,102616.22
2023-02-05T03:09:38.578Z,102612.69
2023-02-05T03:12:05.312Z,102621.25
2023-02-05T03:14:31.885Z,102626.31
2023-02-05T03:16:59.966Z,102623.84
2023-02-05T03:19:28.545Z,102623.56
2023-02-05T03:22:00.873Z,102630.44
2023-02-05T03:24:27.559Z,102635.50
2023-02-05T03:26:54.927Z,102637.22
2023-02-05T03:29:30.837Z,102639.81
2023-02-05T03:32:36.258Z,102630.19
2023-02-05T03:35:10.727Z,102634.63
2023-02-05T03:38:07.134Z,102626.84
2023-02-05T03:40:39.817Z,102617.31
2023-02-05T03:43:36.313Z,102629.44
2023-02-05T03:46:22.941Z,102629.44
2023-02-05T03:49:14.803Z,102622.53
2023-02-05T03:52:03.858Z,102615.78
2023-02-05T03:54:45.551Z,102620.22
2023-02-05T03:57:28.141Z,102615.03
2023-02-05T03:59:58.441Z,102614.22
2023-02-05T04:02:26.078Z,102609.03
2023-02-05T04:04:54.831Z,102611.75
2023-02-05T04:07:21.423Z,102618.81
2023-02-05T04:09:48.647Z,102616.47
2023-02-05T04:12:15.340Z,102619.34
2023-02-05T04:14:43.202Z,102613.50
2023-02-05T04:17:12.403Z,102620.81
2023-02-05T04:19:41.498Z,102624.47
2023-02-05T04:22:08.926Z,102625.47
2023-02-05T04:24:38.349Z,102609.13
2023-02-05T04:27:05.118Z,102594.59
2023-02-05T04:29:32.092Z,102578.19
2023-02-05T04:31:58.609Z,102579.00
2023-02-05T04:34:25.364Z,102578.19
2023-02-05T04:36:52.238Z,102580.03
2023-02-05T04:39:20.331Z,102603.56
2023-02-05T04:41:46.973Z,102602.16
2023-02-05T04:44:14.798Z,102609.44
2023-02-05T04:46:41.430Z,102611.69
2023-02-05T04:49:07.858Z,102604.53
2023-02-05T04:51:34.328Z,102602.59
2023-02-05T04:54:00.789Z,102597.03
2023-02-05T04:56:27.386Z,102589.63
2023-02-05T04:58:54.053Z,102601.22
2023-02-05T05:01:22.938Z,102596.28
2023-02-05T05:03:50.084Z,102602.78
2023-02-05T05:06:18.050Z,102588.47
2023-02-05T05:08:44.918Z,102579.28
2023-02-05T05:11:15.319Z,102570.91
2023-02-05T05:13:42.243Z,102555.44
2023-02-05T05:16:10.939Z,102558.81
2023-02-05T05:18:38.311Z,102565.72
2023-02-05T05:21:05.824Z,102563.91
2023-02-05T05:23:33.308Z,102567.56
2023-02-05T05:25:59.889Z,102551.28
2023-02-05T05:28:27.709Z,102562.72
2023-02-05T05:30:54.516Z,102556.75
2023-02-05T05:33:21.010Z,102561.41
2023-02-05T05:35:47.439Z,102545.28
2023-02-05T05:38:13.958Z,102551.03
2023-02-05T05:41:16.073Z,102551.56
2023-02-05T05:43:48.288Z,102546.06
2023-02-05T05:46:23.671Z,102543.72
2023-02-05T05:48:56.139Z,102548.41
2023-02-05T05:51:24.457Z,102547.22
2023-02-05T05:53:51.533Z,102530.16
2023-02-05T05:56:18.987Z,102531.31
2023-02-05T05:58:46.361Z,102536.63
2023-02-05T06:01:13.835Z,102527.25
2023-02-05T06:03:40.635Z,102528.31
2023-02-05T06:06:08.912Z,102520.09
2023-02-05T06:08:35.401Z,102520.22
2023-02-05T06:11:02.279Z,102517.06
2023-02-05T06:13:28.821Z,102513.81
2023-02-05T06:15:55.653Z,102507.94
2023-02-05T06:18:23.798Z,102494.78
2023-02-05T06:20:50.698Z,102490.50
2023-02-05T06:23:17.492Z,102483.44
2023-02-05T06:25:44.017Z,102487.91
2023-02-05T06:28:10.597Z,102482.69
2023-02-05T06:30:37.340Z,102486.31
2023-02-05T06:33:04.022Z,102475.09
2023-02-05T06:35:31.849Z,102483.19
2023-02-05T06:37:58.633Z,102476.38
2023-02-05T06:40:25.887Z,102479.25
2023-02-05T06:42:53.683Z,102471.66
2023-02-05T06:45:20.284Z,102477.91
2023-02-05T06:47:47.261Z,102476.59
2023-02-05T06:50:14.246Z,102474.50
2023-02-05T06:52:40.784Z,102479.41
2023-02-05T06:55:07.875Z,102474.53
2023-02-05T06:57:34.373Z,102480.91
2023-02-05T07:00:00.802Z,102491.72
2023-02-05T07:02:27.686Z,102495.47
2023-02-05T07:04:54.237Z,102494.81
2023-02-05T07:07:20.711Z,102497.78
2023-02-05T07:09:47.280Z,102497.34
2023-02-05T07:12:13.756Z,102494.19
2023-02-05T07:14:42.867Z,102482.19
2023-02-05T07:17:10.626Z,102470.31
2023-02-05T07:19:37.756Z,102462.47
2023-02-05T07:22:05.501Z,102462.47
2023-02-05T07:24:32.110Z,102453.97
2023-02-05T07:26:58.593Z,102448.91
2023-02-05T07:29:25.264Z,102436.84
2023-02-05T07:31:52.399Z,102439.84
2023-02-05T07:34:20.703Z,102444.38
2023-02-05T07:36:51.046Z,102441.19
2023-02-05T07:39:17.825Z,102438.03
2023-02-05T07:41:44.426Z,102436.69
2023-02-05T07:44:20.845Z,102444.19
2023-02-05T07:46:47.543Z,102453.31
2023-02-05T07:49:14.054Z,102455.59
2023-02-05T07:51:41.282Z,102464.00
2023-02-05T07:54:09.086Z,102466.03
2023-02-05T07:56:35.967Z,102464.81
2023-02-05T07:59:03.404Z,102457.22
2023-02-05T08:01:30.246Z,102461.88
2023-02-05T08:03:56.757Z,102455.19
2023-02-05T08:06:23.371Z,102438.94
2023-02-05T08:08:50.303Z,102440.88
2023-02-05T08:11:18.165Z,102440.88
2023-02-05T08:13:45.816Z,102438.50
2023-02-05T08:16:15.683Z,102439.75
2023-02-05T08:18:43.128Z,102442.69
2023-02-05T08:21:09.594Z,102446.69
2023-02-05T08:23:36.638Z,102447.91
2023-02-05T08:26:03.230Z,102457.09
2023-02-05T08:28:30.025Z,102457.47
2023-02-05T08:30:57.165Z,102462.22
2023-02-05T08:33:23.885Z,102459.28
2023-02-05T08:35:50.361Z,102464.25
2023-02-05T08:38:16.796Z,102469.00
2023-02-05T08:40:43.704Z,102477.19
2023-02-05T08:43:10.589Z,102469.22
2023-02-05T08:45:37.683Z,102458.41
2023-02-05T08:48:04.864Z,102451.69
2023-02-05T08:50:31.446Z,102453.50
2023-02-05T08:52:57.946Z,102455.41
2023-02-05T08:55:24.378Z,102444.59
2023-02-05T08:57:51.131Z,102449.44
2023-02-05T09:00:18.008Z,102446.16
2023-02-05T09:02:44.802Z,102443.44
2023-02-05T09:05:11.339Z,102447.28
2023-02-05T09:07:39.876Z,102441.38
2023-02-05T09:10:09.860Z,102446.81
2023-02-05T09:12:37.236Z,102441.88
2023-02-05T09:15:05.334Z,102434.25
2023-02-05T09:17:32.292Z,102431.94
2023-02-05T09:20:01.827Z,102435.78
2023-02-05T09:22:28.552Z,102432.38
2023-02-05T09:24:55.129Z,102439.41
2023-02-05T09:27:21.560Z,102428.16
2023-02-05T09:29:48.071Z,102443.88
2023-02-05T09:32:14.492Z,102451.63
2023-02-05T09:34:41.376Z,102450.91
2023-02-05T09:37:07.917Z,102443.38
2023-02-05T09:40:17.609Z,102442.81
2023-02-05T09:42:43.281Z,102451.06
2023-02-05T09:45:28.064Z,102460.38
2023-02-05T09:48:24.738Z,102460.19
2023-02-05T09:50:52.379Z,102465.13
2023-02-05T09:53:21.566Z,102457.78
2023-02-05T09:55:49.776Z,102460.94
2023-02-05T09:58:25.738Z,102466.78
2023-02-05T10:01:05.244Z,102464.69
2023-02-05T10:03:44.254Z,102458.22
2023-02-05T10:06:13.557Z,102452.63
2023-02-05T10:08:53.913Z,102449.69
2023-02-05T10:11:38.641Z,102446.56
2023-02-05T10:14:32.218Z,102439.97
2023-02-05T10:17:17.492Z,102436.25
2023-02-05T10:20:13.612Z,102442.09
2023-02-05T10:22:57.293Z,102446.22
2023-02-05T10:25:38.761Z,102439.81
2023-02-05T10:28:11.234Z,102440.31
2023-02-05T10:30:51.370Z,102446.22
2023-02-05T10:33:27.296Z,102438.13
2023-02-05T10:36:01.433Z,102436.88
2023-02-05T10:38:33.704Z,102436.66
2023-02-05T10:41:21.049Z,102438.00
2023-02-05T10:43:59.937Z,102427.41
2023-02-05T10:46:33.515Z,102434.00
2023-02-05T10:49:09.342Z,102431.03
2023-02-05T10:51:41.616Z,102440.28
2023-02-05T10:54:29.337Z,102439.03
2023-02-05T10:56:58.225Z,102425.59
2023-02-05T10:59:33.720Z,102439.91
2023-02-05T11:02:09.592Z,102439.44
2023-02-05T11:04:44.993Z,102439.81
2023-02-05T11:07:19.802Z,102449.88
2023-02-05T11:09:46.290Z,102440.72
2023-02-05T11:12:32.913Z,102437.63
2023-02-05T11:15:02.586Z,102436.09
2023-02-05T11:17:36.602Z,102438.72
2023-02-05T11:20:25.950Z,102448.59
2023-02-05T11:23:07.600Z,102455.25
2023-02-05T11:25:35.066Z,102450.72
2023-02-05T11:28:04.008Z,102464.41
2023-02-05T11:30:49.945Z,102466.47
2023-02-05T11:33:23.183Z,102464.47
2023-02-05T11:35:54.837Z,102467.03
2023-02-05T11:38:31.335Z,102461.41
2023-02-05T11:41:02.565Z,102461.88
2023-02-05T11:43:48.912Z,102454.72
2023-02-05T11:46:20.357Z,102457.34
2023-02-05T11:49:05.500Z,102461.06
2023-02-05T11:51:35.076Z,102462.13
2023-02-05T11:54:14.154Z,102462.06
2023-02-05T11:56:40.706Z,102468.16
2023-02-05T11:59:21.337Z,102472.34
2023-02-05T12:01:48.773Z,102465.22
2023-02-05T12:04:19.087Z,102469.78
2023-02-05T12:07:12.041Z,102479.84
2023-02-05T12:09:38.528Z,102483.72
2023-02-05T12:12:35.554Z,102481.34
2023-02-05T12:15:40.978Z,102483.34
2023-02-05T12:18:38.338Z,102486.56
2023-02-05T12:21:41.046Z,102488.72
2023-02-05T12:24:28.930Z,102484.38
2023-02-05T12:27:17.226Z,102498.41
2023-02-05T12:29:43.949Z,102505.53
2023-02-05T12:32:19.194Z,102494.22
2023-02-05T12:34:53.969Z,102493.44
2023-02-05T12:37:36.325Z,102497.78
2023-02-05T12:40:21.328Z,102494.91
2023-02-05T12:42:57.747Z,102494.06
2023-02-05T12:46:16.404Z,102496.78
2023-02-05T12:48:54.764Z,102494.00
2023-02-05T12:51:43.331Z,102492.91
2023-02-05T12:54:29.264Z,102502.59
2023-02-05T12:57:01.905Z,102491.69
2023-02-05T12:59:48.783Z,102478.72
2023-02-05T13:02:32.412Z,102470.03
2023-02-05T13:05:14.213Z,102476.16
2023-02-05T13:07:53.897Z,102476.00
2023-02-05T13:10:28.430Z,102481.44
2023-02-05T13:13:05.349Z,102470.38
2023-02-05T13:15:40.919Z,102467.28
2023-02-05T13:18:19.222Z,102460.41
2023-02-05T13:21:09.260Z,102447.53
2023-02-05T13:23:56.718Z,102454.69
2023-02-05T13:26:51.404Z,102443.50
2023-02-05T13:29:20.026Z,102444.69
2023-02-05T13:31:54.697Z,102437.09
2023-02-05T13:34:23.005Z,102445.31
2023-02-05T13:37:01.403Z,102449.22
2023-02-05T13:39:55.426Z,102443.47
2023-02-05T13:42:40.836Z,102447.22
2023-02-05T13:45:40.513Z,102454.63
2023-02-05T13:48:29.116Z,102471.72
2023-02-05T13:51:27.457Z,102487.25
2023-02-05T13:54:18.874Z,102490.69
2023-02-05T13:57:10.399Z,102503.78
2023-02-05T13:59:46.584Z,102499.47
2023-02-05T14:02:33.604Z,102486.34
2023-02-05T14:05:02.763Z,102492.50
2023-02-05T14:07:33.451Z,102508.53
2023-02-05T14:10:02.522Z,102504.47
2023-02-05T14:12:32.709Z,102495.81
2023-02-05T14:15:17.688Z,102505.59
2023-02-05T14:17:44.153Z,102503.97
2023-02-05T14:20:26.281Z,102511.03
2023-02-05T14:22:55.168Z,102519.19
2023-02-05T14:25:41.770Z,102522.66
2023-02-05T14:28:17.369Z,102516.31
2023-02-05T14:30:48.437Z,102510.13
2023-02-05T14:33:35.613Z,102516.06
2023-02-05T14:36:17.746Z,102515.72
2023-02-05T14:38:55.138Z,102516.41
2023-02-05T14:41:50.338Z,102528.50
2023-02-05T14:44:39.367Z,102540.72
2023-02-05T14:47:21.259Z,102545.19
2023-02-05T14:49:49.757Z,102547.81
2023-02-05T14:52:19.380Z,102556.59
2023-02-05T14:54:51.367Z,102555.84
2023-02-05T14:57:23.811Z,102562.31
2023-02-05T15:00:14.498Z,102567.19
2023-02-05T15:03:00.738Z,102572.19
2023-02-05T15:05:34.964Z,102573.59
2023-02-05T15:08:11.393Z,102581.94
2023-02-05T15:10:47.233Z,102585.31
2023-02-05T15:13:19.721Z,102594.56
2023-02-05T15:16:11.083Z,102600.00
2023-02-05T15:18:59.363Z,102600.00
2023-02-05T15:21:34.687Z,102594.56
2023-02-05T15:24:06.265Z,102587.41
2023-02-05T15:27:01.449Z,102580.72
2023-02-05T15:29:34.019Z,102577.44
2023-02-05T15:32:24.742Z,102585.50
2023-02-05T15:34:55.512Z,102607.75
2023-02-05T15:37:43.538Z,102605.22
2023-02-05T15:40:24.632Z,102610.47
2023-02-05T15:42:57.908Z,102613.97
2023-02-05T15:45:39.742Z,102625.50
2023-02-05T15:48:23.901Z,102635.38
2023-02-05T15:50:58.506Z,102633.25
2023-02-05T15:53:34.112Z,102623.09
2023-02-05T15:56:16.472Z,102627.84
2023-02-05T15:58:49.766Z,102622.75
2023-02-05T16:01:24.973Z,102614.84
2023-02-05T16:03:51.443Z,102608.56
2023-02-05T16:06:24.606Z,102618.06
2023-02-05T16:08:52.533Z,102609.47
2023-02-05T16:11:33.589Z,102618.25
2023-02-05T16:14:14.508Z,102614.88
2023-02-05T16:16:52.107Z,102623.78
2023-02-05T16:19:24.902Z,102631.09
2023-02-05T16:21:59.278Z,102629.63
2023-02-05T16:24:34.827Z,102642.13
2023-02-05T16:27:09.136Z,102657.25
2023-02-05T16:29:47.936Z,102652.50
2023-02-05T16:32:23.802Z,102652.06
2023-02-05T16:34:50.752Z,102659.53
2023-02-05T16:37:19.356Z,102660.00
2023-02-05T16:39:53.478Z,102669.22
2023-02-05T16:42:31.847Z,102674.13
2023-02-05T16:45:10.574Z,102678.19
2023-02-05T16:47:37.618Z,102685.00
2023-02-05T16:50:37.470Z,102694.19
2023-02-05T16:53:14.983Z,102689.75
2023-02-05T16:55:46.125Z,102693.84
2023-02-05T16:58:19.277Z,102707.03
2023-02-05T17:00:59.442Z,102711.50
2023-02-05T17:03:31.228Z,102716.03
2023-02-05T17:06:01.530Z,102725.81
2023-02-05T17:08:36.556Z,102730.50
2023-02-05T17:11:06.369Z,102729.81
2023-02-05T17:13:44.640Z,102729.38
2023-02-05T17:16:29.817Z,102714.91
2023-02-05T17:19:06.386Z,102710.97
2023-02-05T17:21:35.163Z,102692.88
2023-02-05T17:24:05.014Z,102708.03
2023-02-05T17:26:35.073Z,102697.56
2023-02-05T17:29:04.504Z,102703.91
2023-02-05T17:31:37.798Z,102723.38
2023-02-05T17:34:05.548Z,102715.75
2023-02-05T17:36:32.027Z,102720.41
2023-02-05T17:38:58.547Z,102738.84
2023-02-05T17:41:47.050Z,102744.44
2023-02-05T17:44:15.814Z,102731.91
2023-02-05T17:46:43.695Z,102725.19
2023-02-05T17:49:10.744Z,102729.75
2023-02-05T17:51:42.653Z,102726.31
2023-02-05T17:54:23.535Z,102727.25
2023-02-05T17:56:50.932Z,102740.56
2023-02-05T17:59:20.334Z,102738.94
2023-02-05T18:01:48.247Z,102745.22
2023-02-05T18:04:15.397Z,102750.56
2023-02-05T18:06:42.921Z,102763.91
2023-02-05T18:09:10.027Z,102764.00
2023-02-05T18:11:36.779Z,102767.66
2023-02-05T18:14:03.403Z,102766.06
2023-02-05T18:16:30.258Z,102765.50
2023-02-05T18:18:57.464Z,102771.72
2023-02-05T18:21:24.646Z,102778.81
2023-02-05T18:23:54.858Z,102765.81
2023-02-05T18:26:21.868Z,102770.38
2023-02-05T18:28:48.431Z,102761.03
2023-02-05T18:31:15.482Z,102755.09
2023-02-05T18:33:42.285Z,102762.19
2023-02-05T18:36:13.993Z,102766.50
2023-02-05T18:38:42.957Z,102754.44
2023-02-05T18:41:14.837Z,102752.72
2023-02-05T18:43:41.901Z,102760.78
2023-02-05T18:46:16.642Z,102771.47
2023-02-05T18:48:45.754Z,102776.97
2023-02-05T18:51:14.387Z,102773.53
2023-02-05T18:53:42.982Z,102782.41
2023-02-05T18:56:14.192Z,102787.78
2023-02-05T18:58:41.845Z,102795.63
2023-02-05T19:01:16.281Z,102802.47
2023-02-05T19:03:44.028Z,102795.53
2023-02-05T19:06:14.082Z,102799.94
2023-02-05T19:08:41.311Z,102800.19
2023-02-05T19:11:10.635Z,102803.69
2023-02-05T19:13:37.753Z,102808.94
2023-02-05T19:16:06.756Z,102815.91
2023-02-05T19:18:33.378Z,102818.44
2023-02-05T19:21:05.256Z,102819.31
2023-02-05T19:23:32.213Z,102834.34
2023-02-05T19:26:02.597Z,102842.31
2023-02-05T19:28:31.311Z,102848.59
2023-02-05T19:31:03.593Z,102841.75
2023-02-05T19:33:31.633Z,102850.75
2023-02-05T19:35:59.557Z,102852.56
2023-02-05T19:38:26.374Z,102858.94
2023-02-05T19:40:53.062Z,102860.78
2023-02-05T19:43:19.931Z,102852.09
2023-02-05T19:45:47.755Z,102859.19
2023-02-05T19:48:15.676Z,102868.06
2023-02-05T19:50:43.752Z,102871.59
2023-02-05T19:53:10.659Z,102875.03
2023-02-05T19:55:37.313Z,102872.41
2023-02-05T19:58:04.123Z,102869.66
2023-02-05T20:00:30.778Z,102876.50
2023-02-05T20:02:57.709Z,102867.63
2023-02-05T20:05:24.528Z,102867.63
2023-02-05T20:07:52.057Z,102860.44
2023-02-05T20:10:19.146Z,102858.63
2023-02-05T20:12:48.721Z,102870.03
2023-02-05T20:15:16.214Z,102885.50
2023-02-05T20:17:43.801Z,102881.63
2023-02-05T20:20:22.255Z,102882.19
2023-02-05T20:22:54.793Z,102884.59
2023-02-05T20:25:21.666Z,102878.31
2023-02-05T20:27:48.348Z,102881.97
2023-02-05T20:30:33.426Z,102877.66
2023-02-05T20:33:00.014Z,102873.31
2023-02-05T20:35:26.452Z,102878.78
2023-02-05T20:37:53.100Z,102869.19
2023-02-05T20:40:19.688Z,102877.19
2023-02-05T20:42:46.884Z,102878.91
2023-02-05T20:45:13.521Z,102877.19
2023-02-05T20:47:40.961Z,102881.53
2023-02-05T20:50:09.286Z,102884.91
2023-02-05T20:52:36.921Z,102887.31
2023-02-05T20:55:03.932Z,102889.03
2023-02-05T20:57:30.389Z,102877.50
2023-02-05T20:59:56.882Z,102886.06
2023-02-05T21:02:23.686Z,102885.16
2023-02-05T21:04:52.481Z,102882.41
2023-02-05T21:07:19.201Z,102883.47
2023-02-05T21:09:45.635Z,102876.63
2023-02-05T21:12:12.257Z,102883.56
2023-02-05T21:14:38.935Z,102891.41
2023-02-05T21:17:09.228Z,102883.56
2023-02-05T21:19:35.686Z,102884.47
2023-02-05T21:22:02.468Z,102891.41
2023-02-05T21:24:29.187Z,102897.69
2023-02-05T21:26:55.964Z,102903.03
2023-02-05T21:29:22.501Z,102889.03
2023-02-05T21:31:52.832Z,102897.69
2023-02-05T21:34:26.140Z,102906.31
2023-02-05T21:36:54.916Z,102906.31
2023-02-05T21:39:21.924Z,102908.84
2023-02-05T21:41:50.507Z,102900.97
2023-02-05T21:44:17.182Z,102900.88
2023-02-05T21:46:43.694Z,102897.94
2023-02-05T21:49:11.531Z,102889.47
2023-02-05T21:51:39.902Z,102886.28
2023-02-05T21:54:06.551Z,102888.31
2023-02-05T21:56:39.897Z,102897.44
2023-02-05T21:59:07.516Z,102897.16
2023-02-05T22:01:36.508Z,102900.38
2023-02-05T22:04:07.665Z,102900.91
2023-02-05T22:06:35.566Z,102909.69
2023-02-05T22:09:04.812Z,102909.69
2023-02-05T22:11:31.554Z,102918.31
2023-02-05T22:13:58.463Z,102921.50
2023-02-05T22:16:30.824Z,102927.97
2023-02-05T22:18:59.292Z,102923.88
2023-02-05T22:21:28.221Z,102905.97
2023-02-05T22:23:56.650Z,102902.88
2023-02-05T22:26:36.803Z,102904.66
2023-02-05T22:29:06.594Z,102919.50
2023-02-05T22:31:34.167Z,102921.41
2023-02-05T22:34:00.942Z,102914.63
2023-02-05T22:36:30.681Z,102910.88
2023-02-05T22:38:57.866Z,102912.25
2023-02-05T22:41:30.639Z,102911.81
2023-02-05T22:43:58.686Z,102911.66
2023-02-05T22:46:30.004Z,102923.41
2023-02-05T22:48:58.485Z,102922.97
2023-02-05T22:51:34.178Z,102933.88
2023-02-05T22:54:01.833Z,102923.56
2023-02-05T22:56:29.237Z,102921.19
2023-02-05T22:58:56.883Z,102925.06
2023-02-05T23:01:28.895Z,102931.34
2023-02-05T23:03:57.532Z,102936.03
2023-02-05T23:06:27.026Z,102936.94
2023-02-05T23:08:57.339Z,102937.94
2023-02-05T23:11:25.076Z,102932.88
2023-02-05T23:13:51.966Z,102931.25
2023-02-05T23:16:31.157Z,102944.72
2023-02-05T23:19:00.710Z,102945.84
2023-02-05T23:21:29.214Z,102943.47
2023-02-05T23:23:56.510Z,102950.00
2023-02-05T23:26:26.586Z,102942.25
2023-02-05T23:28:55.221Z,102945.75
2023-02-05T23:31:22.941Z,102943.16
2023-02-05T23:33:49.753Z,102929.28
2023-02-05T23:36:16.508Z,102941.56
2023-02-05T23:38:43.034Z,102937.25
2023-02-05T23:41:09.834Z,102934.63
2023-02-05T23:43:37.218Z,102939.75
2023-02-05T23:46:05.273Z,102937.91
2023-02-05T23:48:31.855Z,102932.66
2023-02-05T23:50:58.401Z,102934.28
2023-02-05T23:53:25.079Z,102935.72
2023-02-05T23:55:52.972Z,102932.78
2023-02-05T23:58:20.926Z,102936.97
